sensor_id;sensor_type;location;lat;lon;timestamp;temperature;humidity
29321;DHT22;16323;51.130;6.612;2023-03-18T00:00:13;17.10;63.70
29321;DHT22;16323;51.130;6.612;2023-03-18T00:02:41;17.10;63.60
29321;DHT22;16323;51.130;6.612;2023-03-18T00:05:10;17.10;63.60
29321;DHT22;16323;51.130;6.612;2023-03-18T00:07:38;17.10;63.70
29321;DHT22;16323;51.130;6.612;2023-03-18T00:10:07;17.10;63.80
29321;DHT22;16323;51.130;6.612;2023-03-18T00:12:34;17.10;63.70
29321;DHT22;16323;51.130;6.612;2023-03-18T00:15:03;17.10;63.90
29321;DHT22;16323;51.130;6.612;2023-03-18T00:17:30;17.10;63.90
29321;DHT22;16323;51.130;6.612;2023-03-18T00:19:57;17.10;63.80
29321;DHT22;16323;51.130;6.612;2023-03-18T00:22:31;17.10;63.90
29321;DHT22;16323;51.130;6.612;2023-03-18T00:24:58;17.10;63.90
29321;DHT22;16323;51.130;6.612;2023-03-18T00:27:25;17.10;64.00
29321;DHT22;16323;51.130;6.612;2023-03-18T00:29:52;17.10;64.00
29321;DHT22;16323;51.130;6.612;2023-03-18T00:32:19;17.10;64.00
29321;DHT22;16323;51.130;6.612;2023-03-18T00:34:46;17.00;63.90
29321;DHT22;16323;51.130;6.612;2023-03-18T00:37:13;17.00;63.90
29321;DHT22;16323;51.130;6.612;2023-03-18T00:39:45;17.00;63.90
29321;DHT22;16323;51.130;6.612;2023-03-18T00:42:12;17.00;63.90
29321;DHT22;16323;51.130;6.612;2023-03-18T00:44:40;17.10;64.00
29321;DHT22;16323;51.130;6.612;2023-03-18T00:47:08;17.10;64.00
29321;DHT22;16323;51.130;6.612;2023-03-18T00:49:34;17.10;63.80
29321;DHT22;16323;51.130;6.612;2023-03-18T00:52:02;17.10;63.90
29321;DHT22;16323;51.130;6.612;2023-03-18T00:54:29;17.10;63.80
29321;DHT22;16323;51.130;6.612;2023-03-18T00:56:57;17.10;63.70
29321;DHT22;16323;51.130;6.612;2023-03-18T00:59:24;17.10;63.80
29321;DHT22;16323;51.130;6.612;2023-03-18T01:01:51;17.10;63.80
29321;DHT22;16323;51.130;6.612;2023-03-18T01:04:19;17.10;63.50
29321;DHT22;16323;51.130;6.612;2023-03-18T01:06:45;17.20;63.60
29321;DHT22;16323;51.130;6.612;2023-03-18T01:09:12;17.20;63.70
29321;DHT22;16323;51.130;6.612;2023-03-18T01:11:41;17.10;63.60
29321;DHT22;16323;51.130;6.612;2023-03-18T01:14:09;17.10;63.70
29321;DHT22;16323;51.130;6.612;2023-03-18T01:16:36;17.10;63.60
29321;DHT22;16323;51.130;6.612;2023-03-18T01:19:03;17.10;63.60
29321;DHT22;16323;51.130;6.612;2023-03-18T01:21:31;17.10;63.70
29321;DHT22;16323;51.130;6.612;2023-03-18T01:23:58;17.10;63.80
29321;DHT22;16323;51.130;6.612;2023-03-18T01:26:26;17.10;63.90
29321;DHT22;16323;51.130;6.612;2023-03-18T01:28:52;17.10;64.20
29321;DHT22;16323;51.130;6.612;2023-03-18T01:31:21;17.10;64.40
29321;DHT22;16323;51.130;6.612;2023-03-18T01:33:48;17.10;64.70
29321;DHT22;16323;51.130;6.612;2023-03-18T01:36:15;17.10;64.80
29321;DHT22;16323;51.130;6.612;2023-03-18T01:38:42;17.10;65.00
29321;DHT22;16323;51.130;6.612;2023-03-18T01:41:09;17.10;64.90
29321;DHT22;16323;51.130;6.612;2023-03-18T01:43:38;17.10;64.80
29321;DHT22;16323;51.130;6.612;2023-03-18T01:46:29;17.10;64.70
29321;DHT22;16323;51.130;6.612;2023-03-18T01:48:56;17.10;64.70
29321;DHT22;16323;51.130;6.612;2023-03-18T01:51:25;17.10;64.30
29321;DHT22;16323;51.130;6.612;2023-03-18T01:53:56;17.10;64.30
29321;DHT22;16323;51.130;6.612;2023-03-18T01:56:24;17.10;64.40
29321;DHT22;16323;51.130;6.612;2023-03-18T01:58:55;17.10;64.40
29321;DHT22;16323;51.130;6.612;2023-03-18T02:01:25;17.10;64.30
29321;DHT22;16323;51.130;6.612;2023-03-18T02:03:56;17.10;64.30
29321;DHT22;16323;51.130;6.612;2023-03-18T02:06:24;17.20;64.50
29321;DHT22;16323;51.130;6.612;2023-03-18T02:08:52;17.10;64.30
29321;DHT22;16323;51.130;6.612;2023-03-18T02:11:20;17.10;64.50
29321;DHT22;16323;51.130;6.612;2023-03-18T02:13:48;17.10;64.50
29321;DHT22;16323;51.130;6.612;2023-03-18T02:16:19;17.10;64.60
29321;DHT22;16323;51.130;6.612;2023-03-18T02:18:49;17.10;64.50
29321;DHT22;16323;51.130;6.612;2023-03-18T02:21:29;17.10;64.60
29321;DHT22;16323;51.130;6.612;2023-03-18T02:24:05;17.10;64.60
29321;DHT22;16323;51.130;6.612;2023-03-18T02:26:41;17.10;64.70
29321;DHT22;16323;51.130;6.612;2023-03-18T02:29:12;17.10;64.70
29321;DHT22;16323;51.130;6.612;2023-03-18T02:31:41;17.10;64.70
29321;DHT22;16323;51.130;6.612;2023-03-18T02:34:08;17.10;64.60
29321;DHT22;16323;51.130;6.612;2023-03-18T02:36:36;17.10;64.70
29321;DHT22;16323;51.130;6.612;2023-03-18T02:39:04;17.10;64.70
29321;DHT22;16323;51.130;6.612;2023-03-18T02:41:33;17.10;64.50
29321;DHT22;16323;51.130;6.612;2023-03-18T02:44:00;17.10;64.40
29321;DHT22;16323;51.130;6.612;2023-03-18T02:46:37;17.10;64.40
29321;DHT22;16323;51.130;6.612;2023-03-18T02:49:07;17.10;64.30
29321;DHT22;16323;51.130;6.612;2023-03-18T02:51:35;17.20;64.20
29321;DHT22;16323;51.130;6.612;2023-03-18T02:54:05;17.20;64.30
29321;DHT22;16323;51.130;6.612;2023-03-18T02:56:33;17.10;64.20
29321;DHT22;16323;51.130;6.612;2023-03-18T02:59:00;17.20;64.30
29321;DHT22;16323;51.130;6.612;2023-03-18T03:01:26;17.20;64.30
29321;DHT22;16323;51.130;6.612;2023-03-18T03:03:55;17.20;64.20
29321;DHT22;16323;51.130;6.612;2023-03-18T03:06:22;17.20;64.20
29321;DHT22;16323;51.130;6.612;2023-03-18T03:08:50;17.20;64.20
29321;DHT22;16323;51.130;6.612;2023-03-18T03:11:17;17.20;64.20
29321;DHT22;16323;51.130;6.612;2023-03-18T03:13:44;17.20;64.20
29321;DHT22;16323;51.130;6.612;2023-03-18T03:16:12;17.20;64.20
29321;DHT22;16323;51.130;6.612;2023-03-18T03:18:40;17.20;64.30
29321;DHT22;16323;51.130;6.612;2023-03-18T03:21:08;17.20;64.20
29321;DHT22;16323;51.130;6.612;2023-03-18T03:23:36;17.20;64.20
29321;DHT22;16323;51.130;6.612;2023-03-18T03:26:04;17.20;64.20
29321;DHT22;16323;51.130;6.612;2023-03-18T03:28:32;17.20;64.10
29321;DHT22;16323;51.130;6.612;2023-03-18T03:30:59;17.20;64.20
29321;DHT22;16323;51.130;6.612;2023-03-18T03:33:27;17.10;64.10
29321;DHT22;16323;51.130;6.612;2023-03-18T03:35:54;17.20;64.20
29321;DHT22;16323;51.130;6.612;2023-03-18T03:38:24;17.20;64.20
29321;DHT22;16323;51.130;6.612;2023-03-18T03:40:51;17.10;64.20
29321;DHT22;16323;51.130;6.612;2023-03-18T03:43:18;17.10;64.20
29321;DHT22;16323;51.130;6.612;2023-03-18T03:45:45;17.10;64.20
29321;DHT22;16323;51.130;6.612;2023-03-18T03:48:12;17.10;64.20
29321;DHT22;16323;51.130;6.612;2023-03-18T03:50:39;17.10;64.20
29321;DHT22;16323;51.130;6.612;2023-03-18T03:53:06;17.10;64.30
29321;DHT22;16323;51.130;6.612;2023-03-18T03:55:36;17.10;64.30
29321;DHT22;16323;51.130;6.612;2023-03-18T03:58:03;17.10;64.20
29321;DHT22;16323;51.130;6.612;2023-03-18T04:00:30;17.10;64.00
29321;DHT22;16323;51.130;6.612;2023-03-18T04:02:57;17.10;64.00
29321;DHT22;16323;51.130;6.612;2023-03-18T04:05:24;17.20;64.00
29321;DHT22;16323;51.130;6.612;2023-03-18T04:07:51;17.20;63.90
29321;DHT22;16323;51.130;6.612;2023-03-18T04:10:20;17.20;63.80
29321;DHT22;16323;51.130;6.612;2023-03-18T04:12:48;17.20;63.90
29321;DHT22;16323;51.130;6.612;2023-03-18T04:15:17;17.20;63.90
29321;DHT22;16323;51.130;6.612;2023-03-18T04:17:46;17.20;63.80
29321;DHT22;16323;51.130;6.612;2023-03-18T04:20:13;17.20;63.90
29321;DHT22;16323;51.130;6.612;2023-03-18T04:22:42;17.20;63.90
29321;DHT22;16323;51.130;6.612;2023-03-18T04:25:10;17.10;63.90
29321;DHT22;16323;51.130;6.612;2023-03-18T04:27:39;17.10;63.90
29321;DHT22;16323;51.130;6.612;2023-03-18T04:30:09;17.10;64.10
29321;DHT22;16323;51.130;6.612;2023-03-18T04:32:37;17.10;64.00
29321;DHT22;16323;51.130;6.612;2023-03-18T04:35:04;17.10;64.10
29321;DHT22;16323;51.130;6.612;2023-03-18T04:37:31;17.10;64.10
29321;DHT22;16323;51.130;6.612;2023-03-18T04:40:00;17.10;64.20
29321;DHT22;16323;51.130;6.612;2023-03-18T04:42:26;17.10;64.20
29321;DHT22;16323;51.130;6.612;2023-03-18T04:44:53;17.10;64.20
29321;DHT22;16323;51.130;6.612;2023-03-18T04:47:21;17.10;64.20
29321;DHT22;16323;51.130;6.612;2023-03-18T04:49:48;17.10;65.20
29321;DHT22;16323;51.130;6.612;2023-03-18T04:52:15;17.10;64.00
29321;DHT22;16323;51.130;6.612;2023-03-18T04:54:42;17.10;64.00
29321;DHT22;16323;51.130;6.612;2023-03-18T04:57:09;17.10;64.00
29321;DHT22;16323;51.130;6.612;2023-03-18T04:59:35;17.10;63.90
29321;DHT22;16323;51.130;6.612;2023-03-18T05:02:02;17.10;63.90
29321;DHT22;16323;51.130;6.612;2023-03-18T05:04:30;17.10;63.90
29321;DHT22;16323;51.130;6.612;2023-03-18T05:06:58;17.10;63.90
29321;DHT22;16323;51.130;6.612;2023-03-18T05:09:25;17.50;64.30
29321;DHT22;16323;51.130;6.612;2023-03-18T05:11:52;17.20;64.00
29321;DHT22;16323;51.130;6.612;2023-03-18T05:14:19;17.10;64.00
29321;DHT22;16323;51.130;6.612;2023-03-18T05:16:45;17.10;64.00
29321;DHT22;16323;51.130;6.612;2023-03-18T05:19:12;17.10;64.10
29321;DHT22;16323;51.130;6.612;2023-03-18T05:21:41;17.10;64.10
29321;DHT22;16323;51.130;6.612;2023-03-18T05:24:08;17.10;64.00
29321;DHT22;16323;51.130;6.612;2023-03-18T05:26:35;17.10;64.00
29321;DHT22;16323;51.130;6.612;2023-03-18T05:29:03;17.10;64.10
29321;DHT22;16323;51.130;6.612;2023-03-18T05:31:30;17.10;64.20
29321;DHT22;16323;51.130;6.612;2023-03-18T05:33:56;17.10;64.10
29321;DHT22;16323;51.130;6.612;2023-03-18T05:36:24;17.10;64.20
29321;DHT22;16323;51.130;6.612;2023-03-18T05:38:52;17.10;64.10
29321;DHT22;16323;51.130;6.612;2023-03-18T05:41:19;17.10;64.10
29321;DHT22;16323;51.130;6.612;2023-03-18T05:43:46;17.10;64.20
29321;DHT22;16323;51.130;6.612;2023-03-18T05:46:13;17.10;64.00
29321;DHT22;16323;51.130;6.612;2023-03-18T05:48:40;17.10;64.10
29321;DHT22;16323;51.130;6.612;2023-03-18T05:51:08;17.10;65.00
29321;DHT22;16323;51.130;6.612;2023-03-18T05:53:34;17.10;63.90
29321;DHT22;16323;51.130;6.612;2023-03-18T05:56:03;17.10;63.90
29321;DHT22;16323;51.130;6.612;2023-03-18T05:58:30;17.10;63.80
29321;DHT22;16323;51.130;6.612;2023-03-18T06:00:57;17.10;63.80
29321;DHT22;16323;51.130;6.612;2023-03-18T06:03:24;17.10;63.70
29321;DHT22;16323;51.130;6.612;2023-03-18T06:05:52;17.10;63.70
29321;DHT22;16323;51.130;6.612;2023-03-18T06:08:19;17.10;63.70
29321;DHT22;16323;51.130;6.612;2023-03-18T06:10:47;17.10;63.70
29321;DHT22;16323;51.130;6.612;2023-03-18T06:13:15;17.10;63.80
29321;DHT22;16323;51.130;6.612;2023-03-18T06:15:42;17.10;63.80
29321;DHT22;16323;51.130;6.612;2023-03-18T06:18:09;17.10;63.80
29321;DHT22;16323;51.130;6.612;2023-03-18T06:20:36;17.10;63.80
29321;DHT22;16323;51.130;6.612;2023-03-18T06:23:03;17.10;63.80
29321;DHT22;16323;51.130;6.612;2023-03-18T06:25:30;17.10;63.80
29321;DHT22;16323;51.130;6.612;2023-03-18T06:27:57;17.10;63.80
29321;DHT22;16323;51.130;6.612;2023-03-18T06:30:25;17.10;63.80
29321;DHT22;16323;51.130;6.612;2023-03-18T06:32:52;17.10;63.80
29321;DHT22;16323;51.130;6.612;2023-03-18T06:35:19;17.10;63.80
29321;DHT22;16323;51.130;6.612;2023-03-18T06:37:46;17.10;64.00
29321;DHT22;16323;51.130;6.612;2023-03-18T06:40:13;17.10;63.90
29321;DHT22;16323;51.130;6.612;2023-03-18T06:42:40;17.10;63.90
29321;DHT22;16323;51.130;6.612;2023-03-18T06:45:07;17.10;63.80
29321;DHT22;16323;51.130;6.612;2023-03-18T06:47:36;17.10;63.80
29321;DHT22;16323;51.130;6.612;2023-03-18T06:50:04;17.10;63.70
29321;DHT22;16323;51.130;6.612;2023-03-18T06:52:31;17.10;63.60
29321;DHT22;16323;51.130;6.612;2023-03-18T06:54:58;17.10;63.60
29321;DHT22;16323;51.130;6.612;2023-03-18T06:57:25;17.10;63.60
29321;DHT22;16323;51.130;6.612;2023-03-18T06:59:52;17.10;63.60
29321;DHT22;16323;51.130;6.612;2023-03-18T07:02:19;17.10;63.60
29321;DHT22;16323;51.130;6.612;2023-03-18T07:04:49;17.20;63.70
29321;DHT22;16323;51.130;6.612;2023-03-18T07:07:16;17.10;63.80
29321;DHT22;16323;51.130;6.612;2023-03-18T07:09:44;17.10;64.00
29321;DHT22;16323;51.130;6.612;2023-03-18T07:12:12;17.00;64.00
29321;DHT22;16323;51.130;6.612;2023-03-18T07:14:39;17.00;64.10
29321;DHT22;16323;51.130;6.612;2023-03-18T07:17:07;17.00;64.30
29321;DHT22;16323;51.130;6.612;2023-03-18T07:19:35;17.00;65.30
29321;DHT22;16323;51.130;6.612;2023-03-18T07:22:03;17.00;64.30
29321;DHT22;16323;51.130;6.612;2023-03-18T07:24:30;17.00;64.40
29321;DHT22;16323;51.130;6.612;2023-03-18T07:26:57;17.00;64.60
29321;DHT22;16323;51.130;6.612;2023-03-18T07:29:24;17.00;64.50
29321;DHT22;16323;51.130;6.612;2023-03-18T07:31:51;17.00;64.40
29321;DHT22;16323;51.130;6.612;2023-03-18T07:34:18;17.10;64.70
29321;DHT22;16323;51.130;6.612;2023-03-18T07:36:45;17.00;64.50
29321;DHT22;16323;51.130;6.612;2023-03-18T07:39:13;17.00;64.60
29321;DHT22;16323;51.130;6.612;2023-03-18T07:41:40;17.10;64.70
29321;DHT22;16323;51.130;6.612;2023-03-18T07:44:07;17.10;64.70
29321;DHT22;16323;51.130;6.612;2023-03-18T07:46:34;17.10;64.70
29321;DHT22;16323;51.130;6.612;2023-03-18T07:49:01;17.10;64.70
29321;DHT22;16323;51.130;6.612;2023-03-18T07:51:28;17.10;64.60
29321;DHT22;16323;51.130;6.612;2023-03-18T07:53:55;17.10;64.80
29321;DHT22;16323;51.130;6.612;2023-03-18T07:56:23;17.10;65.60
29321;DHT22;16323;51.130;6.612;2023-03-18T07:58:50;17.10;64.70
29321;DHT22;16323;51.130;6.612;2023-03-18T08:01:17;17.10;64.90
29321;DHT22;16323;51.130;6.612;2023-03-18T08:03:44;17.10;65.00
29321;DHT22;16323;51.130;6.612;2023-03-18T08:06:12;17.10;64.80
29321;DHT22;16323;51.130;6.612;2023-03-18T08:08:40;17.10;65.10
29321;DHT22;16323;51.130;6.612;2023-03-18T08:11:07;17.10;65.00
29321;DHT22;16323;51.130;6.612;2023-03-18T08:13:36;17.10;65.10
29321;DHT22;16323;51.130;6.612;2023-03-18T08:16:03;17.10;65.10
29321;DHT22;16323;51.130;6.612;2023-03-18T08:18:30;17.10;65.20
29321;DHT22;16323;51.130;6.612;2023-03-18T08:20:57;17.10;65.30
29321;DHT22;16323;51.130;6.612;2023-03-18T08:23:23;17.10;65.30
29321;DHT22;16323;51.130;6.612;2023-03-18T08:25:50;17.00;65.20
29321;DHT22;16323;51.130;6.612;2023-03-18T08:28:18;17.10;65.40
29321;DHT22;16323;51.130;6.612;2023-03-18T08:30:46;17.10;65.30
29321;DHT22;16323;51.130;6.612;2023-03-18T08:33:13;17.10;65.30
29321;DHT22;16323;51.130;6.612;2023-03-18T08:35:40;17.10;65.30
29321;DHT22;16323;51.130;6.612;2023-03-18T08:38:07;17.00;65.20
29321;DHT22;16323;51.130;6.612;2023-03-18T08:40:34;17.00;65.70
29321;DHT22;16323;51.130;6.612;2023-03-18T08:43:01;17.00;66.40
29321;DHT22;16323;51.130;6.612;2023-03-18T08:45:28;17.10;66.70
29321;DHT22;16323;51.130;6.612;2023-03-18T08:47:56;17.10;66.40
29321;DHT22;16323;51.130;6.612;2023-03-18T08:50:23;17.20;66.50
29321;DHT22;16323;51.130;6.612;2023-03-18T08:52:53;17.20;66.30
29321;DHT22;16323;51.130;6.612;2023-03-18T08:55:22;17.20;65.90
29321;DHT22;16323;51.130;6.612;2023-03-18T08:57:49;17.20;65.40
29321;DHT22;16323;51.130;6.612;2023-03-18T09:00:18;17.30;65.60
29321;DHT22;16323;51.130;6.612;2023-03-18T09:02:45;17.20;65.50
29321;DHT22;16323;51.130;6.612;2023-03-18T09:05:14;17.30;65.40
29321;DHT22;16323;51.130;6.612;2023-03-18T09:07:41;17.30;65.10
29321;DHT22;16323;51.130;6.612;2023-03-18T09:10:08;17.20;65.10
29321;DHT22;16323;51.130;6.612;2023-03-18T09:12:37;17.30;65.20
29321;DHT22;16323;51.130;6.612;2023-03-18T09:15:05;17.30;65.40
29321;DHT22;16323;51.130;6.612;2023-03-18T09:17:32;17.20;65.10
29321;DHT22;16323;51.130;6.612;2023-03-18T09:19:59;17.30;66.30
29321;DHT22;16323;51.130;6.612;2023-03-18T09:22:28;17.20;65.30
29321;DHT22;16323;51.130;6.612;2023-03-18T09:24:56;17.20;65.20
29321;DHT22;16323;51.130;6.612;2023-03-18T09:27:23;17.20;65.10
29321;DHT22;16323;51.130;6.612;2023-03-18T09:29:49;17.20;64.90
29321;DHT22;16323;51.130;6.612;2023-03-18T09:32:16;17.20;65.30
29321;DHT22;16323;51.130;6.612;2023-03-18T09:34:43;17.30;65.70
29321;DHT22;16323;51.130;6.612;2023-03-18T09:37:11;17.20;65.70
29321;DHT22;16323;51.130;6.612;2023-03-18T09:39:40;17.30;65.90
29321;DHT22;16323;51.130;6.612;2023-03-18T09:42:18;17.30;65.60
29321;DHT22;16323;51.130;6.612;2023-03-18T09:44:51;17.30;65.30
29321;DHT22;16323;51.130;6.612;2023-03-18T09:47:36;17.30;65.40
29321;DHT22;16323;51.130;6.612;2023-03-18T09:50:18;17.40;65.40
29321;DHT22;16323;51.130;6.612;2023-03-18T09:52:51;17.40;65.50
29321;DHT22;16323;51.130;6.612;2023-03-18T09:55:25;17.40;65.50
29321;DHT22;16323;51.130;6.612;2023-03-18T09:57:56;17.40;65.50
29321;DHT22;16323;51.130;6.612;2023-03-18T10:00:28;17.40;65.40
29321;DHT22;16323;51.130;6.612;2023-03-18T10:02:58;17.40;65.40
29321;DHT22;16323;51.130;6.612;2023-03-18T10:05:31;17.40;65.60
29321;DHT22;16323;51.130;6.612;2023-03-18T10:08:02;17.40;65.50
29321;DHT22;16323;51.130;6.612;2023-03-18T10:10:35;17.40;65.50
29321;DHT22;16323;51.130;6.612;2023-03-18T10:13:11;17.40;65.70
29321;DHT22;16323;51.130;6.612;2023-03-18T10:15:41;17.40;65.50
29321;DHT22;16323;51.130;6.612;2023-03-18T10:18:13;17.40;65.80
29321;DHT22;16323;51.130;6.612;2023-03-18T10:20:51;17.40;65.70
29321;DHT22;16323;51.130;6.612;2023-03-18T10:23:30;17.40;65.70
29321;DHT22;16323;51.130;6.612;2023-03-18T10:26:07;17.40;65.80
29321;DHT22;16323;51.130;6.612;2023-03-18T10:28:49;17.40;65.90
29321;DHT22;16323;51.130;6.612;2023-03-18T10:31:35;17.40;65.70
29321;DHT22;16323;51.130;6.612;2023-03-18T10:34:07;17.30;65.70
29321;DHT22;16323;51.130;6.612;2023-03-18T10:36:37;17.40;65.80
29321;DHT22;16323;51.130;6.612;2023-03-18T10:39:12;17.40;65.80
29321;DHT22;16323;51.130;6.612;2023-03-18T10:41:42;17.40;65.70
29321;DHT22;16323;51.130;6.612;2023-03-18T10:44:17;17.40;65.70
29321;DHT22;16323;51.130;6.612;2023-03-18T10:46:56;17.40;65.70
29321;DHT22;16323;51.130;6.612;2023-03-18T10:49:26;17.40;65.70
29321;DHT22;16323;51.130;6.612;2023-03-18T10:51:59;17.40;65.80
29321;DHT22;16323;51.130;6.612;2023-03-18T10:54:31;17.40;65.90
29321;DHT22;16323;51.130;6.612;2023-03-18T10:56:59;17.40;66.10
29321;DHT22;16323;51.130;6.612;2023-03-18T10:59:27;17.40;66.10
29321;DHT22;16323;51.130;6.612;2023-03-18T11:01:58;17.40;66.00
29321;DHT22;16323;51.130;6.612;2023-03-18T11:04:28;17.40;66.00
29321;DHT22;16323;51.130;6.612;2023-03-18T11:06:59;17.50;66.20
29321;DHT22;16323;51.130;6.612;2023-03-18T11:09:30;17.40;66.00
29321;DHT22;16323;51.130;6.612;2023-03-18T11:12:03;17.40;66.00
29321;DHT22;16323;51.130;6.612;2023-03-18T11:14:31;17.40;66.00
29321;DHT22;16323;51.130;6.612;2023-03-18T11:16:59;17.40;65.80
29321;DHT22;16323;51.130;6.612;2023-03-18T11:19:29;17.40;65.90
29321;DHT22;16323;51.130;6.612;2023-03-18T11:22:03;17.40;66.00
29321;DHT22;16323;51.130;6.612;2023-03-18T11:24:31;17.40;66.00
29321;DHT22;16323;51.130;6.612;2023-03-18T11:27:23;17.40;65.90
29321;DHT22;16323;51.130;6.612;2023-03-18T11:29:54;17.40;66.20
29321;DHT22;16323;51.130;6.612;2023-03-18T11:32:24;17.40;66.20
29321;DHT22;16323;51.130;6.612;2023-03-18T11:34:54;17.40;66.10
29321;DHT22;16323;51.130;6.612;2023-03-18T11:37:26;17.40;66.20
29321;DHT22;16323;51.130;6.612;2023-03-18T11:40:05;17.40;65.90
29321;DHT22;16323;51.130;6.612;2023-03-18T11:42:37;17.40;66.00
29321;DHT22;16323;51.130;6.612;2023-03-18T11:45:17;17.40;65.90
29321;DHT22;16323;51.130;6.612;2023-03-18T11:47:49;17.40;65.80
29321;DHT22;16323;51.130;6.612;2023-03-18T11:50:19;17.40;66.90
29321;DHT22;16323;51.130;6.612;2023-03-18T11:52:51;17.40;65.90
29321;DHT22;16323;51.130;6.612;2023-03-18T11:55:29;17.40;65.90
29321;DHT22;16323;51.130;6.612;2023-03-18T11:58:35;17.40;66.10
29321;DHT22;16323;51.130;6.612;2023-03-18T12:01:10;17.40;66.00
29321;DHT22;16323;51.130;6.612;2023-03-18T12:04:05;17.40;66.20
29321;DHT22;16323;51.130;6.612;2023-03-18T12:06:36;17.40;66.10
29321;DHT22;16323;51.130;6.612;2023-03-18T12:09:14;17.40;66.30
29321;DHT22;16323;51.130;6.612;2023-03-18T12:11:50;17.40;66.10
29321;DHT22;16323;51.130;6.612;2023-03-18T12:14:29;17.40;66.30
29321;DHT22;16323;51.130;6.612;2023-03-18T12:17:05;17.40;66.50
29321;DHT22;16323;51.130;6.612;2023-03-18T12:19:46;17.40;66.30
29321;DHT22;16323;51.130;6.612;2023-03-18T12:22:28;17.40;66.40
29321;DHT22;16323;51.130;6.612;2023-03-18T12:25:21;17.40;66.40
29321;DHT22;16323;51.130;6.612;2023-03-18T12:27:59;17.40;66.30
29321;DHT22;16323;51.130;6.612;2023-03-18T12:30:54;17.40;66.30
29321;DHT22;16323;51.130;6.612;2023-03-18T12:33:35;17.40;66.20
29321;DHT22;16323;51.130;6.612;2023-03-18T12:36:16;17.40;66.40
29321;DHT22;16323;51.130;6.612;2023-03-18T12:41:41;17.40;66.30
29321;DHT22;16323;51.130;6.612;2023-03-18T12:44:20;17.40;66.10
29321;DHT22;16323;51.130;6.612;2023-03-18T12:46:56;17.40;66.30
29321;DHT22;16323;51.130;6.612;2023-03-18T12:49:28;17.40;66.10
29321;DHT22;16323;51.130;6.612;2023-03-18T12:52:00;17.40;66.00
29321;DHT22;16323;51.130;6.612;2023-03-18T12:54:30;17.40;66.10
29321;DHT22;16323;51.130;6.612;2023-03-18T12:57:02;17.40;66.10
29321;DHT22;16323;51.130;6.612;2023-03-18T12:59:34;17.40;66.10
29321;DHT22;16323;51.130;6.612;2023-03-18T13:02:23;17.50;66.20
29321;DHT22;16323;51.130;6.612;2023-03-18T13:04:54;17.40;66.20
29321;DHT22;16323;51.130;6.612;2023-03-18T13:07:28;17.40;66.30
29321;DHT22;16323;51.130;6.612;2023-03-18T13:10:04;17.40;66.30
29321;DHT22;16323;51.130;6.612;2023-03-18T13:12:36;17.40;66.20
29321;DHT22;16323;51.130;6.612;2023-03-18T13:15:13;17.40;66.30
29321;DHT22;16323;51.130;6.612;2023-03-18T13:17:43;17.40;66.30
29321;DHT22;16323;51.130;6.612;2023-03-18T13:20:17;17.40;66.30
29321;DHT22;16323;51.130;6.612;2023-03-18T13:23:06;17.40;66.40
29321;DHT22;16323;51.130;6.612;2023-03-18T13:25:38;17.40;66.70
29321;DHT22;16323;51.130;6.612;2023-03-18T13:28:26;17.40;66.70
29321;DHT22;16323;51.130;6.612;2023-03-18T13:31:04;17.40;67.10
29321;DHT22;16323;51.130;6.612;2023-03-18T13:33:54;17.40;67.10
29321;DHT22;16323;51.130;6.612;2023-03-18T13:36:46;17.40;67.10
29321;DHT22;16323;51.130;6.612;2023-03-18T13:39:25;17.40;68.30
29321;DHT22;16323;51.130;6.612;2023-03-18T13:42:14;17.40;67.10
29321;DHT22;16323;51.130;6.612;2023-03-18T13:44:47;17.40;67.50
29321;DHT22;16323;51.130;6.612;2023-03-18T13:47:17;17.40;67.80
29321;DHT22;16323;51.130;6.612;2023-03-18T13:49:46;17.40;68.30
29321;DHT22;16323;51.130;6.612;2023-03-18T13:52:27;17.40;68.30
29321;DHT22;16323;51.130;6.612;2023-03-18T13:54:59;17.50;68.80
29321;DHT22;16323;51.130;6.612;2023-03-18T13:57:44;17.40;68.90
29321;DHT22;16323;51.130;6.612;2023-03-18T14:00:25;17.50;69.30
29321;DHT22;16323;51.130;6.612;2023-03-18T14:05:49;17.40;70.50
29321;DHT22;16323;51.130;6.612;2023-03-18T14:08:50;17.40;69.00
29321;DHT22;16323;51.130;6.612;2023-03-18T14:11:47;17.40;69.20
29321;DHT22;16323;51.130;6.612;2023-03-18T14:17:45;17.40;69.60
29321;DHT22;16323;51.130;6.612;2023-03-18T14:20:28;17.40;69.70
29321;DHT22;16323;51.130;6.612;2023-03-18T14:23:22;17.40;69.80
29321;DHT22;16323;51.130;6.612;2023-03-18T14:25:59;17.40;69.90
29321;DHT22;16323;51.130;6.612;2023-03-18T14:28:28;17.40;69.80
29321;DHT22;16323;51.130;6.612;2023-03-18T14:30:57;17.40;69.80
29321;DHT22;16323;51.130;6.612;2023-03-18T14:33:51;17.40;70.20
29321;DHT22;16323;51.130;6.612;2023-03-18T14:36:27;17.40;69.50
29321;DHT22;16323;51.130;6.612;2023-03-18T14:39:10;17.40;70.00
29321;DHT22;16323;51.130;6.612;2023-03-18T14:41:42;17.40;70.30
29321;DHT22;16323;51.130;6.612;2023-03-18T14:44:20;17.40;70.30
29321;DHT22;16323;51.130;6.612;2023-03-18T14:46:50;17.40;70.40
29321;DHT22;16323;51.130;6.612;2023-03-18T14:49:31;17.40;70.10
29321;DHT22;16323;51.130;6.612;2023-03-18T14:52:01;17.40;70.20
29321;DHT22;16323;51.130;6.612;2023-03-18T14:54:37;17.50;70.90
29321;DHT22;16323;51.130;6.612;2023-03-18T14:57:07;17.50;70.30
29321;DHT22;16323;51.130;6.612;2023-03-18T14:59:33;17.50;70.00
29321;DHT22;16323;51.130;6.612;2023-03-18T15:02:01;17.50;70.10
29321;DHT22;16323;51.130;6.612;2023-03-18T15:04:31;17.50;69.90
29321;DHT22;16323;51.130;6.612;2023-03-18T15:07:00;17.40;70.10
29321;DHT22;16323;51.130;6.612;2023-03-18T15:09:30;17.40;69.90
29321;DHT22;16323;51.130;6.612;2023-03-18T15:12:15;17.40;70.00
29321;DHT22;16323;51.130;6.612;2023-03-18T15:14:42;17.40;70.10
29321;DHT22;16323;51.130;6.612;2023-03-18T15:17:13;17.40;69.60
29321;DHT22;16323;51.130;6.612;2023-03-18T15:19:41;17.40;69.60
29321;DHT22;16323;51.130;6.612;2023-03-18T15:22:09;17.40;69.70
29321;DHT22;16323;51.130;6.612;2023-03-18T15:24:39;17.40;70.00
29321;DHT22;16323;51.130;6.612;2023-03-18T15:27:12;17.40;70.00
29321;DHT22;16323;51.130;6.612;2023-03-18T15:29:43;17.40;69.80
29321;DHT22;16323;51.130;6.612;2023-03-18T15:32:15;17.40;69.90
29321;DHT22;16323;51.130;6.612;2023-03-18T15:34:47;17.40;69.90
29321;DHT22;16323;51.130;6.612;2023-03-18T15:37:36;17.40;69.70
29321;DHT22;16323;51.130;6.612;2023-03-18T15:40:29;17.40;70.00
29321;DHT22;16323;51.130;6.612;2023-03-18T15:43:04;17.40;70.00
29321;DHT22;16323;51.130;6.612;2023-03-18T15:45:31;17.40;71.00
29321;DHT22;16323;51.130;6.612;2023-03-18T15:48:03;17.40;69.90
29321;DHT22;16323;51.130;6.612;2023-03-18T15:50:33;17.40;70.10
29321;DHT22;16323;51.130;6.612;2023-03-18T15:53:04;17.50;70.20
29321;DHT22;16323;51.130;6.612;2023-03-18T15:55:33;17.40;70.20
29321;DHT22;16323;51.130;6.612;2023-03-18T15:58:10;17.40;70.00
29321;DHT22;16323;51.130;6.612;2023-03-18T16:00:43;17.50;70.20